General Aviation Weather

Text Reports

Enter one or more of the following location identifiers separated by a space:

Zip Code, Four-Character ICAO or Three-Character IATA airport codes.

METAR - Aviation Routine Weather Report
KVTI - Vinton, Iowa
Updated at 2:35 PM GMT on October 31, 2014 (9:35 AM CDT):
METAR KVTI 311435Z AUTO 36020G27KT 10SM CLR 00/M06 A3041 RMK AO2 T00031065
TAF - Terminal Area Forecast
KVTI - Vinton, Iowa
Updated at 2:35 PM GMT on October 31, 2014 (9:35 AM CDT):
No TAF is currently available for this location.
Decoded:
No decoded TAF is available.
PIREP - Pilot Weather Report
KVTI - Vinton, Iowa
Updated at 2:35 PM GMT on October 31, 2014 (9:35 AM CDT):
No PIREP is currently available for this location.
AIRMET - Airmens Meteorological Information
KVTI - Vinton, Iowa
Updated at 2:35 PM GMT on October 31, 2014 (9:35 AM CDT):
No AIRMET is currently available for this location.
SIGMET - Significant Meteorological Information
KVTI - Vinton, Iowa
Updated at 2:35 PM GMT on October 31, 2014 (9:35 AM CDT):
No SIGMET is currently available for this location.
NOTAM - Notice to Airmen
KVTI - Vinton, Iowa
Updated at 2:35 PM GMT on October 31, 2014 (9:35 AM CDT):
No NOTAM is currently available for this location.
Forecast Area
KVTI - Vinton, Iowa
Updated at 2:35 PM GMT on October 31, 2014 (9:35 AM CDT):
No NOTAM is currently available for this location.
Aviation Weather Maps